createdAt,value
2019-06-01T00:01:05.762Z,100980.73
2019-06-01T00:03:32.497Z,100974.31
2019-06-01T00:05:59.224Z,100976.11
2019-06-01T00:08:25.952Z,100968.55
2019-06-01T00:10:52.677Z,100976.61
2019-06-01T00:13:19.420Z,100980.38
2019-06-01T00:15:46.213Z,100973.98
2019-06-01T00:18:12.877Z,100975.80
2019-06-01T00:20:40.070Z,100974.33
2019-06-01T00:23:06.370Z,100964.66
2019-06-01T00:25:33.101Z,100965.14
2019-06-01T00:27:59.836Z,100961.48
2019-06-01T00:30:27.525Z,100965.13
2019-06-01T00:32:53.350Z,100960.22
2019-06-01T00:35:20.094Z,100962.81
2019-06-01T00:37:47.614Z,100964.45
2019-06-01T00:40:13.584Z,100966.25
2019-06-01T00:42:40.318Z,100962.45
2019-06-01T00:45:07.050Z,100960.45
2019-06-01T00:47:33.785Z,100962.78
2019-06-01T00:50:00.509Z,100964.26
2019-06-01T00:52:27.251Z,100953.28
2019-06-01T00:54:54.006Z,100957.50
2019-06-01T00:57:22.267Z,100953.90
2019-06-01T00:59:48.093Z,100953.45
2019-06-01T01:02:14.265Z,100953.78
2019-06-01T01:04:41.046Z,100962.57
2019-06-01T01:07:07.784Z,100959.39
2019-06-01T01:09:34.522Z,100962.25
2019-06-01T01:12:01.250Z,100968.81
2019-06-01T01:14:28.022Z,100960.78
2019-06-01T01:16:55.768Z,100961.12
2019-06-01T01:19:21.523Z,100958.79
2019-06-01T01:21:49.882Z,100959.39
2019-06-01T01:24:15.550Z,100957.91
2019-06-01T01:26:42.283Z,100960.15
2019-06-01T01:29:09.027Z,100960.11
2019-06-01T01:31:35.759Z,100959.47
2019-06-01T01:34:02.490Z,100960.05
2019-06-01T01:36:29.234Z,100961.70
2019-06-01T01:38:56.316Z,100961.92
2019-06-01T01:41:22.768Z,100954.09
2019-06-01T01:43:50.373Z,100963.73
2019-06-01T01:46:16.230Z,100971.92
2019-06-01T01:48:42.986Z,100962.03
2019-06-01T01:51:09.706Z,100959.40
2019-06-01T01:53:36.438Z,100957.45
2019-06-01T01:56:03.154Z,100955.28
2019-06-01T01:58:29.895Z,100955.16
2019-06-01T02:00:58.402Z,100947.44
2019-06-01T02:03:23.401Z,100947.50
2019-06-01T02:05:50.748Z,100942.68
2019-06-01T02:08:16.896Z,100948.35
2019-06-01T02:10:43.638Z,100945.05
2019-06-01T02:13:10.358Z,100947.92
2019-06-01T02:15:37.120Z,100943.52
2019-06-01T02:18:04.058Z,100943.66
2019-06-01T02:20:30.878Z,100940.42
2019-06-01T02:22:58.887Z,100939.02
2019-06-01T02:25:24.334Z,100940.67
2019-06-01T02:27:51.080Z,100937.36
2019-06-01T02:30:17.827Z,100939.00
2019-06-01T02:32:44.559Z,100945.13
2019-06-01T02:35:11.296Z,100938.65
2019-06-01T02:37:38.044Z,100936.63
2019-06-01T02:40:05.460Z,100933.83
2019-06-01T02:42:31.530Z,100934.32
2019-06-01T02:44:59.206Z,100935.47
2019-06-01T02:47:25.070Z,100935.63
2019-06-01T02:49:51.808Z,100943.66
2019-06-01T02:52:18.526Z,100933.09
2019-06-01T02:54:45.268Z,100942.05
2019-06-01T02:57:11.987Z,100939.80
2019-06-01T02:59:38.723Z,100937.52
2019-06-01T03:02:10.618Z,100944.75
2019-06-01T03:04:32.178Z,100940.53
2019-06-01T03:06:59.534Z,100939.18
2019-06-01T03:09:25.643Z,100940.36
2019-06-01T03:11:53.082Z,100938.10
2019-06-01T03:14:19.846Z,100923.30
2019-06-01T03:16:46.570Z,100931.66
2019-06-01T03:19:13.786Z,100929.09
2019-06-01T03:21:40.523Z,100936.41
2019-06-01T03:24:08.195Z,100933.64
2019-06-01T03:26:39.784Z,100932.45
2019-06-01T03:29:07.274Z,100928.51
2019-06-01T03:31:33.264Z,100929.59
2019-06-01T03:34:01.533Z,100924.11
2019-06-01T03:36:26.813Z,100933.08
2019-06-01T03:38:53.551Z,100933.45
2019-06-01T03:41:20.279Z,100932.45
2019-06-01T03:43:47.010Z,100932.20
2019-06-01T03:46:13.729Z,100929.97
2019-06-01T03:48:40.466Z,100927.66
2019-06-01T03:51:08.300Z,100932.96
2019-06-01T03:53:33.915Z,100925.37
2019-06-01T03:56:01.726Z,100928.21
2019-06-01T03:58:27.459Z,100931.94
2019-06-01T04:00:54.194Z,100928.19
2019-06-01T04:03:20.918Z,100940.05
2019-06-01T04:05:47.655Z,100934.39
2019-06-01T04:08:14.395Z,100939.20
2019-06-01T04:10:41.112Z,100936.41
2019-06-01T04:13:07.851Z,100935.94
2019-06-01T04:15:34.608Z,100928.53
2019-06-01T04:18:01.901Z,100930.68
2019-06-01T04:20:28.075Z,100928.34
2019-06-01T04:22:54.890Z,100939.72
2019-06-01T04:25:21.623Z,100937.83
2019-06-01T04:27:48.366Z,100941.11
2019-06-01T04:30:15.094Z,100949.47
2019-06-01T04:32:49.748Z,100942.77
2019-06-01T04:35:08.990Z,100946.67
2019-06-01T04:37:35.266Z,100944.73
2019-06-01T04:40:03.241Z,100945.05
2019-06-01T04:42:28.742Z,100948.87
2019-06-01T04:44:55.492Z,100945.28
2019-06-01T04:47:22.238Z,100945.02
2019-06-01T04:49:48.964Z,100947.02
2019-06-01T04:52:15.706Z,100941.95
2019-06-01T04:54:42.450Z,100941.16
2019-06-01T04:57:09.358Z,100942.27
2019-06-01T04:59:37.902Z,100947.64
2019-06-01T05:02:02.842Z,100949.13
2019-06-01T05:04:29.583Z,100942.52
2019-06-01T05:06:56.318Z,100943.56
2019-06-01T05:09:23.055Z,100944.38
2019-06-01T05:11:49.803Z,100939.67
2019-06-01T05:14:16.728Z,100946.59
2019-06-01T05:16:43.378Z,100949.65
2019-06-01T05:19:10.195Z,100954.44
2019-06-01T05:21:36.878Z,100954.41
2019-06-01T05:24:03.605Z,100955.87
2019-06-01T05:26:30.342Z,100962.13
2019-06-01T05:28:57.092Z,100958.97
2019-06-01T05:31:25.374Z,100968.17
2019-06-01T05:33:50.582Z,100967.02
2019-06-01T05:36:18.325Z,100964.45
2019-06-01T05:38:44.066Z,100961.26
2019-06-01T05:41:11.957Z,100961.20
2019-06-01T05:43:37.544Z,100959.09
2019-06-01T05:46:04.277Z,100961.89
2019-06-01T05:48:31.022Z,100967.44
2019-06-01T05:50:57.754Z,100960.50
2019-06-01T05:53:24.531Z,100964.42
2019-06-01T05:55:51.250Z,100962.05
2019-06-01T05:58:19.509Z,100956.45
2019-06-01T06:00:44.721Z,100958.49
2019-06-01T06:03:14.919Z,100957.97
2019-06-01T06:05:38.231Z,100960.84
2019-06-01T06:08:05.376Z,100968.56
2019-06-01T06:10:32.093Z,100956.67
2019-06-01T06:12:58.830Z,100964.02
2019-06-01T06:15:25.658Z,100967.02
2019-06-01T06:17:52.410Z,100971.91
2019-06-01T06:20:20.143Z,100969.90
2019-06-01T06:22:45.891Z,100973.45
2019-06-01T06:25:14.248Z,100971.39
2019-06-01T06:27:39.465Z,100967.55
2019-06-01T06:30:06.238Z,100966.99
2019-06-01T06:32:32.970Z,100969.24
2019-06-01T06:34:59.808Z,100963.91
2019-06-01T06:37:26.557Z,100973.19
2019-06-01T06:39:53.290Z,100969.49
2019-06-01T06:42:20.344Z,100965.52
2019-06-01T06:44:46.762Z,100963.92
2019-06-01T06:47:14.628Z,100968.87
2019-06-01T06:49:40.246Z,100968.23
2019-06-01T06:52:06.966Z,100974.64
2019-06-01T06:54:33.711Z,100972.03
2019-06-01T06:57:00.446Z,100969.22
2019-06-01T06:59:27.182Z,100969.25
2019-06-01T07:01:53.925Z,100967.92
2019-06-01T07:04:21.376Z,100966.23
2019-06-01T07:06:47.414Z,100969.61
2019-06-01T07:09:14.178Z,100973.46
2019-06-01T07:11:40.900Z,100975.80
2019-06-01T07:14:07.646Z,100972.06
2019-06-01T07:16:34.411Z,100966.38
2019-06-01T07:19:01.176Z,100963.91
2019-06-01T07:21:27.944Z,100969.72
2019-06-01T07:23:54.684Z,100973.88
2019-06-01T07:26:21.946Z,100963.39
2019-06-01T07:28:48.248Z,100964.59
2019-06-01T07:31:14.962Z,100961.55
2019-06-01T07:33:41.695Z,100963.89
2019-06-01T07:36:08.443Z,100953.22
2019-06-01T07:38:35.154Z,100959.52
2019-06-01T07:41:01.874Z,100960.17
2019-06-01T07:43:28.963Z,100960.35
2019-06-01T07:45:55.338Z,100954.39
2019-06-01T07:48:23.097Z,100959.19
2019-06-01T07:50:48.827Z,100954.83
2019-06-01T07:53:15.598Z,100960.39
2019-06-01T07:55:42.331Z,100948.36
2019-06-01T07:58:09.154Z,100949.91
2019-06-01T08:00:35.913Z,100947.45
2019-06-01T08:03:02.642Z,100937.52
2019-06-01T08:05:30.185Z,100942.97
2019-06-01T08:07:56.130Z,100941.47
2019-06-01T08:10:24.450Z,100932.39
2019-06-01T08:12:49.693Z,100942.70
2019-06-01T08:15:16.419Z,100939.30
2019-06-01T08:17:43.147Z,100933.69
2019-06-01T08:20:09.915Z,100941.20
2019-06-01T08:22:36.662Z,100937.88
2019-06-01T08:25:03.462Z,100939.44
2019-06-01T08:27:30.625Z,100932.48
2019-06-01T08:30:00.010Z,100930.88
2019-06-01T08:32:26.742Z,100926.66
2019-06-01T08:35:07.211Z,100935.33
2019-06-01T08:37:20.207Z,100924.72
2019-06-01T08:39:46.954Z,100930.04
2019-06-01T08:42:13.673Z,100923.23
2019-06-01T08:44:40.414Z,100914.56
2019-06-01T08:47:07.219Z,100909.25
2019-06-01T08:49:34.559Z,100922.65
2019-06-01T08:52:00.685Z,100921.95
2019-06-01T08:54:28.094Z,100914.35
2019-06-01T08:56:54.232Z,100914.16
2019-06-01T08:59:20.979Z,100899.85
2019-06-01T09:01:47.702Z,100901.67
2019-06-01T09:04:14.450Z,100899.27
2019-06-01T09:06:41.185Z,100897.27
2019-06-01T09:09:11.501Z,100894.40
2019-06-01T09:11:35.341Z,100892.88
2019-06-01T09:14:01.462Z,100893.91
2019-06-01T09:16:29.523Z,100884.83
2019-06-01T09:18:54.912Z,100878.20
2019-06-01T09:21:21.649Z,100888.45
2019-06-01T09:23:48.371Z,100882.13
2019-06-01T09:26:15.111Z,100881.84
2019-06-01T09:28:41.838Z,100896.40
2019-06-01T09:31:08.580Z,100882.34
2019-06-01T09:33:36.893Z,100877.80
2019-06-01T09:36:02.054Z,100879.00
2019-06-01T09:38:29.599Z,100879.14
2019-06-01T09:40:55.536Z,100877.80
2019-06-01T09:43:22.260Z,100866.16
2019-06-01T09:45:52.989Z,100855.59
2019-06-01T09:48:15.732Z,100867.60
2019-06-01T09:50:42.478Z,100870.42
2019-06-01T09:53:09.214Z,100862.56
2019-06-01T09:55:36.464Z,100850.16
2019-06-01T09:58:02.690Z,100859.66
2019-06-01T10:00:30.318Z,100857.77
2019-06-01T10:02:56.202Z,100849.45
2019-06-01T10:05:22.944Z,100845.36
2019-06-01T10:07:49.672Z,100842.34
2019-06-01T10:10:16.441Z,100831.39
2019-06-01T10:12:43.178Z,100831.00
2019-06-01T10:15:09.918Z,100828.72
2019-06-01T10:17:37.161Z,100848.72
2019-06-01T10:20:03.758Z,100833.73
2019-06-01T10:22:30.977Z,100845.70
2019-06-01T10:24:57.250Z,100836.48
2019-06-01T10:27:23.999Z,100837.69
2019-06-01T10:29:50.723Z,100836.50
2019-06-01T10:32:17.483Z,100856.09
2019-06-01T10:34:44.243Z,100846.50
2019-06-01T10:37:11.012Z,100840.14
2019-06-01T10:39:37.754Z,100834.48
2019-06-01T10:42:04.495Z,100827.66
2019-06-01T10:44:31.644Z,100825.77
2019-06-01T10:46:58.230Z,100823.59
2019-06-01T10:49:24.969Z,100828.75
2019-06-01T10:51:51.709Z,100825.12
2019-06-01T10:54:18.442Z,100820.60
2019-06-01T10:56:45.190Z,100818.59
2019-06-01T10:59:11.921Z,100819.87
2019-06-01T11:01:38.912Z,100820.13
2019-06-01T11:04:05.412Z,100817.88
2019-06-01T11:06:40.249Z,100816.09
2019-06-01T11:08:58.946Z,100817.13
2019-06-01T11:11:25.690Z,100812.72
2019-06-01T11:13:52.439Z,100809.16
2019-06-01T11:16:19.186Z,100809.70
2019-06-01T11:18:45.916Z,100817.94
2019-06-01T11:21:12.666Z,100807.27
2019-06-01T11:23:42.762Z,100803.78
2019-06-01T11:26:06.143Z,100799.37
2019-06-01T11:28:33.837Z,100803.61
2019-06-01T11:30:59.615Z,100789.16
2019-06-01T11:33:26.460Z,100804.45
2019-06-01T11:35:53.239Z,100790.94
2019-06-01T11:38:19.961Z,100779.90
2019-06-01T11:40:46.720Z,100777.14
2019-06-01T11:43:13.442Z,100786.79
2019-06-01T11:45:40.803Z,100774.12
2019-06-01T11:48:06.936Z,100788.99
2019-06-01T11:50:35.131Z,100790.33
2019-06-01T11:53:00.429Z,100785.95
2019-06-01T11:55:27.162Z,100768.73
2019-06-01T11:57:53.950Z,100765.95
2019-06-01T12:00:20.730Z,100756.63
2019-06-01T12:02:47.475Z,100756.96
2019-06-01T12:05:14.211Z,100737.41
2019-06-01T12:07:41.975Z,100738.41
2019-06-01T12:10:07.709Z,100724.89
2019-06-01T12:12:35.901Z,100729.21
2019-06-01T12:15:01.326Z,100727.25
2019-06-01T12:17:28.048Z,100731.75
2019-06-01T12:19:54.785Z,100725.64
2019-06-01T12:22:21.547Z,100720.83
2019-06-01T12:24:48.278Z,100722.13
2019-06-01T12:27:15.086Z,100719.13
2019-06-01T12:29:41.821Z,100713.80
2019-06-01T12:32:08.571Z,100710.36
2019-06-01T12:36:59.651Z,100711.92
2019-06-01T12:39:26.380Z,100721.10
2019-06-01T12:41:53.180Z,100722.22
2019-06-01T12:44:19.865Z,100715.43
2019-06-01T12:46:47.021Z,100703.03
2019-06-01T12:49:13.370Z,100698.11
2019-06-01T12:51:40.673Z,100703.88
2019-06-01T12:54:06.882Z,100698.43
2019-06-01T12:56:33.646Z,100700.84
2019-06-01T12:59:00.462Z,100689.47
2019-06-01T13:01:27.250Z,100687.55
2019-06-01T13:03:54.005Z,100690.81
2019-06-01T13:06:20.791Z,100674.45
2019-06-01T13:08:47.564Z,100682.33
2019-06-01T13:11:14.314Z,100688.02
2019-06-01T13:13:41.272Z,100676.61
2019-06-01T13:16:07.839Z,100675.20
2019-06-01T13:18:34.592Z,100673.91
2019-06-01T13:21:01.374Z,100674.13
2019-06-01T13:23:28.169Z,100660.71
2019-06-01T13:25:54.907Z,100663.35
2019-06-01T13:28:37.331Z,100663.28
2019-06-01T13:30:49.705Z,100668.89
2019-06-01T13:33:15.538Z,100652.20
2019-06-01T13:35:42.347Z,100653.66
2019-06-01T13:38:12.179Z,100645.83
2019-06-01T13:40:35.949Z,100633.45
2019-06-01T13:43:02.798Z,100627.11
2019-06-01T13:45:29.614Z,100637.70
2019-06-01T13:47:56.367Z,100631.11
2019-06-01T13:50:23.113Z,100622.81
2019-06-01T13:52:50.093Z,100619.19
2019-06-01T13:55:16.678Z,100619.33
2019-06-01T13:57:44.196Z,100618.30
2019-06-01T14:00:15.810Z,100618.05
2019-06-01T14:02:41.415Z,100616.93
2019-06-01T14:05:09.292Z,100597.08
2019-06-01T14:07:37.637Z,100590.28
2019-06-01T14:10:08.154Z,100588.48
2019-06-01T14:12:39.272Z,100601.56
2019-06-01T14:15:12.222Z,100597.58
2019-06-01T14:17:40.803Z,100588.70
2019-06-01T14:20:09.707Z,100603.23
2019-06-01T14:22:37.788Z,100597.87
2019-06-01T14:25:12.344Z,100603.53
2019-06-01T14:27:34.209Z,100601.64
2019-06-01T14:30:06.257Z,100586.59
2019-06-01T14:32:34.865Z,100579.33
2019-06-01T14:35:06.908Z,100586.83
2019-06-01T14:37:34.588Z,100577.10
2019-06-01T14:40:03.531Z,100584.14
2019-06-01T14:42:31.968Z,100587.66
2019-06-01T14:45:00.045Z,100591.67
2019-06-01T14:47:29.408Z,100584.98
2019-06-01T14:49:58.017Z,100576.37
2019-06-01T14:52:27.220Z,100573.67
2019-06-01T14:54:58.095Z,100564.84
2019-06-01T14:57:25.298Z,100566.97
2019-06-01T14:59:54.276Z,100560.00
2019-06-01T15:02:25.127Z,100549.80
2019-06-01T15:04:54.194Z,100551.08
2019-06-01T15:07:21.223Z,100551.94
2019-06-01T15:09:52.259Z,100539.59
2019-06-01T15:12:21.121Z,100547.38
2019-06-01T15:14:50.514Z,100542.27
2019-06-01T15:17:17.423Z,100533.83
2019-06-01T15:19:46.385Z,100530.67
2019-06-01T15:22:16.499Z,100533.67
2019-06-01T15:24:44.834Z,100529.02
2019-06-01T15:27:16.433Z,100529.63
2019-06-01T15:29:45.892Z,100538.54
2019-06-01T15:32:16.057Z,100523.98
2019-06-01T15:34:45.210Z,100519.83
2019-06-01T15:37:14.468Z,100531.45
2019-06-01T15:39:45.236Z,100521.20
2019-06-01T15:42:12.246Z,100503.33
2019-06-01T15:44:39.954Z,100495.00
2019-06-01T15:47:12.560Z,100508.41
2019-06-01T15:49:42.657Z,100519.34
2019-06-01T15:52:13.218Z,100516.92
2019-06-01T15:54:44.225Z,100509.84
2019-06-01T15:57:12.884Z,100494.27
2019-06-01T15:59:44.029Z,100501.70
2019-06-01T16:02:12.498Z,100502.75
2019-06-01T16:04:41.411Z,100505.95
2019-06-01T16:07:09.679Z,100506.78
2019-06-01T16:09:43.042Z,100495.05
2019-06-01T16:12:11.414Z,100499.84
2019-06-01T16:14:44.172Z,100491.22
2019-06-01T16:17:13.443Z,100492.85
2019-06-01T16:19:44.205Z,100503.61
2019-06-01T16:22:13.895Z,100491.00
2019-06-01T16:24:43.446Z,100499.07
2019-06-01T16:27:11.778Z,100500.66
2019-06-01T16:29:40.882Z,100489.41
2019-06-01T16:32:12.373Z,100494.23
2019-06-01T16:34:42.238Z,100480.73
2019-06-01T16:37:12.095Z,100492.84
2019-06-01T16:39:55.884Z,100496.34
2019-06-01T16:42:09.897Z,100497.44
2019-06-01T16:44:41.181Z,100491.75
2019-06-01T16:47:12.001Z,100489.92
2019-06-01T16:49:42.547Z,100495.77
2019-06-01T16:52:11.769Z,100481.89
2019-06-01T16:54:42.070Z,100483.69
2019-06-01T16:57:12.681Z,100487.78
2019-06-01T16:59:42.304Z,100481.05
2019-06-01T17:02:11.096Z,100483.44
2019-06-01T17:04:41.400Z,100486.70
2019-06-01T17:07:11.336Z,100481.08
2019-06-01T17:09:40.225Z,100473.00
2019-06-01T17:12:08.018Z,100471.56
2019-06-01T17:14:38.077Z,100474.30
2019-06-01T17:17:07.572Z,100475.33
2019-06-01T17:19:35.478Z,100475.78
2019-06-01T17:22:05.512Z,100477.87
2019-06-01T17:24:34.269Z,100468.34
2019-06-01T17:27:04.004Z,100462.83
2019-06-01T17:29:32.193Z,100452.67
2019-06-01T17:32:19.021Z,100449.32
2019-06-01T17:34:34.167Z,100444.27
2019-06-01T17:37:02.741Z,100444.44
2019-06-01T17:39:32.883Z,100447.67
2019-06-01T17:42:02.389Z,100445.32
2019-06-01T17:44:30.770Z,100446.52
2019-06-01T17:47:06.304Z,100443.19
2019-06-01T17:49:37.137Z,100449.81
2019-06-01T17:52:05.845Z,100441.38
2019-06-01T17:54:32.830Z,100452.45
2019-06-01T17:57:01.227Z,100449.53
2019-06-01T17:59:29.217Z,100454.45
2019-06-01T18:01:58.500Z,100454.20
2019-06-01T18:04:30.172Z,100451.57
2019-06-01T18:07:01.699Z,100452.31
2019-06-01T18:09:28.386Z,100469.41
2019-06-01T18:11:57.539Z,100466.47
2019-06-01T18:14:26.888Z,100465.09
2019-06-01T18:16:55.042Z,100460.19
2019-06-01T18:19:23.437Z,100462.78
2019-06-01T18:21:52.900Z,100473.78
2019-06-01T18:24:22.454Z,100475.62
2019-06-01T18:26:51.672Z,100474.71
2019-06-01T18:29:20.548Z,100484.78
2019-06-01T18:31:48.254Z,100482.38
2019-06-01T18:34:20.220Z,100488.16
2019-06-01T18:36:53.965Z,100492.52
2019-06-01T18:39:25.933Z,100495.26
2019-06-01T18:41:57.348Z,100496.00
2019-06-01T18:44:25.958Z,100498.67
2019-06-01T18:46:54.253Z,100494.96
2019-06-01T18:49:23.994Z,100497.31
2019-06-01T18:51:53.818Z,100501.45
2019-06-01T18:54:26.978Z,100495.33
2019-06-01T18:57:09.038Z,100493.25
2019-06-01T18:59:24.278Z,100488.77
2019-06-01T19:01:55.480Z,100485.48
2019-06-01T19:04:23.168Z,100500.30
2019-06-01T19:06:53.099Z,100499.39
2019-06-01T19:09:22.946Z,100490.12
2019-06-01T19:11:52.439Z,100503.73
2019-06-01T19:14:21.273Z,100496.84
2019-06-01T19:16:50.828Z,100507.23
2019-06-01T19:19:19.892Z,100494.52
2019-06-01T19:21:48.444Z,100507.93
2019-06-01T19:24:18.203Z,100511.09
2019-06-01T19:26:48.723Z,100512.07
2019-06-01T19:29:18.425Z,100503.78
2019-06-01T19:31:47.331Z,100521.80
2019-06-01T19:34:17.820Z,100514.97
2019-06-01T19:36:46.052Z,100525.83
2019-06-01T19:39:15.541Z,100523.85
2019-06-01T19:41:45.621Z,100529.89
2019-06-01T19:44:15.813Z,100523.05
2019-06-01T19:46:43.442Z,100526.73
2019-06-01T19:49:13.675Z,100518.83
2019-06-01T19:51:41.138Z,100526.50
2019-06-01T19:54:10.793Z,100527.25
2019-06-01T19:56:38.614Z,100523.10
2019-06-01T19:59:06.303Z,100527.36
2019-06-01T20:01:37.418Z,100533.32
2019-06-01T20:04:08.130Z,100537.82
2019-06-01T20:06:37.532Z,100527.10
2019-06-01T20:09:15.050Z,100535.58
2019-06-01T20:12:01.018Z,100526.84
2019-06-01T20:14:16.424Z,100535.19
2019-06-01T20:16:46.421Z,100535.13
2019-06-01T20:19:15.663Z,100528.59
2019-06-01T20:21:46.240Z,100539.46
2019-06-01T20:24:15.267Z,100538.09
2019-06-01T20:26:49.385Z,100527.35
2019-06-01T20:29:19.663Z,100532.20
2019-06-01T20:31:47.459Z,100520.61
2019-06-01T20:34:16.218Z,100528.43
2019-06-01T20:36:45.190Z,100532.78
2019-06-01T20:39:18.366Z,100531.16
2019-06-01T20:41:48.363Z,100530.67
2019-06-01T20:44:18.826Z,100530.79
2019-06-01T20:46:46.942Z,100532.92
2019-06-01T20:49:16.846Z,100534.83
2019-06-01T20:51:46.385Z,100528.80
2019-06-01T20:54:17.178Z,100533.72
2019-06-01T20:56:48.124Z,100531.52
2019-06-01T20:59:18.540Z,100535.72
2019-06-01T21:01:45.590Z,100539.86
2019-06-01T21:04:16.265Z,100538.16
2019-06-01T21:06:45.356Z,100538.81
2019-06-01T21:09:15.972Z,100537.80
2019-06-01T21:11:46.267Z,100539.30
2019-06-01T21:14:15.935Z,100542.89
2019-06-01T21:16:44.336Z,100542.17
2019-06-01T21:19:14.442Z,100539.11
2019-06-01T21:21:43.953Z,100539.33
2019-06-01T21:24:12.589Z,100534.39
2019-06-01T21:26:44.036Z,100534.93
2019-06-01T21:29:14.571Z,100525.58
2019-06-01T21:31:41.986Z,100536.06
2019-06-01T21:34:15.079Z,100536.16
2019-06-01T21:36:43.042Z,100534.70
2019-06-01T21:39:11.902Z,100546.05
2019-06-01T21:41:40.646Z,100546.26
2019-06-01T21:44:11.925Z,100537.40
2019-06-01T21:46:40.842Z,100542.07
2019-06-01T21:49:11.946Z,100539.43
2019-06-01T21:51:42.314Z,100537.11
2019-06-01T21:54:13.290Z,100532.11
2019-06-01T21:56:46.265Z,100530.59
2019-06-01T21:59:12.066Z,100525.05
2019-06-01T22:01:41.544Z,100533.81
2019-06-01T22:04:11.081Z,100533.66
2019-06-01T22:06:39.729Z,100530.28
2019-06-01T22:09:12.351Z,100533.81
2019-06-01T22:11:41.333Z,100531.19
2019-06-01T22:14:12.369Z,100544.30
2019-06-01T22:16:40.407Z,100534.97
2019-06-01T22:19:09.872Z,100530.27
2019-06-01T22:24:15.042Z,100531.25
2019-06-01T22:26:46.045Z,100530.98
2019-06-01T22:29:18.501Z,100532.52
2019-06-01T22:31:47.223Z,100526.67
2019-06-01T22:34:18.562Z,100534.19
2019-06-01T22:36:49.019Z,100527.94
2019-06-01T22:39:21.001Z,100540.02
2019-06-01T22:41:49.221Z,100530.94
2019-06-01T22:44:20.070Z,100532.63
2019-06-01T22:46:51.362Z,100524.13
2019-06-01T22:49:24.723Z,100531.70
2019-06-01T22:51:53.366Z,100531.69
2019-06-01T22:54:25.260Z,100526.27
2019-06-01T22:56:53.928Z,100513.64
2019-06-01T22:59:24.453Z,100517.22
2019-06-01T23:01:55.309Z,100510.30
2019-06-01T23:04:25.386Z,100515.55
2019-06-01T23:06:56.184Z,100512.00
2019-06-01T23:09:25.520Z,100505.45
2019-06-01T23:12:02.772Z,100501.50
2019-06-01T23:14:35.006Z,100505.53
2019-06-01T23:17:05.243Z,100496.09
2019-06-01T23:19:36.592Z,100490.70
2019-06-01T23:22:08.163Z,100491.34
2019-06-01T23:24:38.551Z,100488.32
2019-06-01T23:27:11.475Z,100490.95
2019-06-01T23:29:39.709Z,100496.20
2019-06-01T23:32:10.004Z,100497.83
2019-06-01T23:34:42.220Z,100497.78
2019-06-01T23:37:12.821Z,100498.72
2019-06-01T23:39:43.457Z,100500.25
2019-06-01T23:42:12.582Z,100498.84
2019-06-01T23:44:40.361Z,100496.78
2019-06-01T23:47:12.457Z,100495.08
2019-06-01T23:49:41.385Z,100488.53
2019-06-01T23:52:10.294Z,100485.87
2019-06-01T23:54:39.433Z,100492.52
2019-06-01T23:57:09.554Z,100490.97
2019-06-01T23:59:37.862Z,100494.41
